sensor_id;sensor_type;location;lat;lon;timestamp;P1;durP1;ratioP1;P2;durP2;ratioP2
12308;SDS011;6217;48.150;17.142;2024-03-23T00:56:10;35.03;;;23.70;;
12308;SDS011;6217;48.150;17.142;2024-03-23T01:00:15;39.40;;;22.17;;
12308;SDS011;6217;48.150;17.142;2024-03-23T01:04:22;29.15;;;20.85;;
12308;SDS011;6217;48.150;17.142;2024-03-23T01:08:27;31.65;;;22.35;;
12308;SDS011;6217;48.150;17.142;2024-03-23T01:12:33;29.25;;;21.73;;
12308;SDS011;6217;48.150;17.142;2024-03-23T01:16:39;31.52;;;19.73;;
12308;SDS011;6217;48.150;17.142;2024-03-23T01:20:45;23.20;;;17.00;;
12308;SDS011;6217;48.150;17.142;2024-03-23T01:24:51;24.42;;;14.98;;
12308;SDS011;6217;48.150;17.142;2024-03-23T01:28:57;17.63;;;13.30;;
12308;SDS011;6217;48.150;17.142;2024-03-23T01:33:03;18.77;;;11.40;;
12308;SDS011;6217;48.150;17.142;2024-03-23T01:37:09;17.13;;;12.57;;
12308;SDS011;6217;48.150;17.142;2024-03-23T01:41:15;20.10;;;12.82;;
12308;SDS011;6217;48.150;17.142;2024-03-23T01:45:21;16.35;;;12.00;;
12308;SDS011;6217;48.150;17.142;2024-03-23T01:49:28;12.02;;;10.65;;
12308;SDS011;6217;48.150;17.142;2024-03-23T01:53:34;15.57;;;10.00;;
12308;SDS011;6217;48.150;17.142;2024-03-23T01:57:40;18.00;;;11.40;;
12308;SDS011;6217;48.150;17.142;2024-03-23T02:01:47;19.20;;;10.57;;
12308;SDS011;6217;48.150;17.142;2024-03-23T02:05:54;15.00;;;12.13;;
12308;SDS011;6217;48.150;17.142;2024-03-23T02:10:01;19.33;;;10.82;;
12308;SDS011;6217;48.150;17.142;2024-03-23T02:14:07;21.15;;;12.65;;
12308;SDS011;6217;48.150;17.142;2024-03-23T02:18:13;17.58;;;11.50;;
12308;SDS011;6217;48.150;17.142;2024-03-23T02:22:19;21.83;;;11.07;;
12308;SDS011;6217;48.150;17.142;2024-03-23T02:26:25;17.70;;;12.52;;
12308;SDS011;6217;48.150;17.142;2024-03-23T02:30:31;18.75;;;11.27;;
12308;SDS011;6217;48.150;17.142;2024-03-23T02:34:37;16.23;;;12.98;;
12308;SDS011;6217;48.150;17.142;2024-03-23T02:38:43;17.98;;;12.63;;
12308;SDS011;6217;48.150;17.142;2024-03-23T02:42:49;15.10;;;10.65;;
12308;SDS011;6217;48.150;17.142;2024-03-23T02:46:55;16.02;;;10.60;;
12308;SDS011;6217;48.150;17.142;2024-03-23T02:51:01;17.70;;;11.90;;
12308;SDS011;6217;48.150;17.142;2024-03-23T02:55:07;17.15;;;10.65;;
12308;SDS011;6217;48.150;17.142;2024-03-23T02:59:13;13.98;;;10.20;;
12308;SDS011;6217;48.150;17.142;2024-03-23T03:03:19;16.23;;;11.00;;
12308;SDS011;6217;48.150;17.142;2024-03-23T03:07:25;18.02;;;11.88;;
12308;SDS011;6217;48.150;17.142;2024-03-23T03:11:31;14.50;;;10.50;;
12308;SDS011;6217;48.150;17.142;2024-03-23T03:15:37;15.32;;;11.18;;
12308;SDS011;6217;48.150;17.142;2024-03-23T03:19:43;12.43;;;10.32;;
12308;SDS011;6217;48.150;17.142;2024-03-23T03:23:48;16.80;;;11.02;;
12308;SDS011;6217;48.150;17.142;2024-03-23T03:27:55;17.83;;;10.95;;
12308;SDS011;6217;48.150;17.142;2024-03-23T03:32:04;13.88;;;10.73;;
12308;SDS011;6217;48.150;17.142;2024-03-23T03:36:10;13.40;;;11.13;;
12308;SDS011;6217;48.150;17.142;2024-03-23T03:40:16;16.05;;;10.65;;
12308;SDS011;6217;48.150;17.142;2024-03-23T03:44:22;17.55;;;11.43;;
12308;SDS011;6217;48.150;17.142;2024-03-23T03:48:28;20.77;;;11.40;;
12308;SDS011;6217;48.150;17.142;2024-03-23T03:52:34;14.77;;;11.20;;
12308;SDS011;6217;48.150;17.142;2024-03-23T03:56:40;18.27;;;12.43;;
12308;SDS011;6217;48.150;17.142;2024-03-23T04:00:46;16.23;;;11.43;;
12308;SDS011;6217;48.150;17.142;2024-03-23T04:04:52;18.50;;;13.05;;
12308;SDS011;6217;48.150;17.142;2024-03-23T04:08:58;16.33;;;12.40;;
12308;SDS011;6217;48.150;17.142;2024-03-23T04:13:04;16.27;;;12.52;;
12308;SDS011;6217;48.150;17.142;2024-03-23T04:17:10;17.48;;;12.95;;
12308;SDS011;6217;48.150;17.142;2024-03-23T04:21:16;16.17;;;11.40;;
12308;SDS011;6217;48.150;17.142;2024-03-23T04:25:22;21.90;;;14.82;;
12308;SDS011;6217;48.150;17.142;2024-03-23T04:29:28;17.05;;;13.07;;
12308;SDS011;6217;48.150;17.142;2024-03-23T04:33:33;18.58;;;14.32;;
12308;SDS011;6217;48.150;17.142;2024-03-23T04:37:39;23.25;;;13.80;;
12308;SDS011;6217;48.150;17.142;2024-03-23T04:41:48;17.67;;;13.75;;
12308;SDS011;6217;48.150;17.142;2024-03-23T04:45:54;15.45;;;12.75;;
12308;SDS011;6217;48.150;17.142;2024-03-23T04:50:00;19.45;;;13.20;;
12308;SDS011;6217;48.150;17.142;2024-03-23T04:54:06;19.33;;;13.02;;
12308;SDS011;6217;48.150;17.142;2024-03-23T04:58:12;21.58;;;14.45;;
12308;SDS011;6217;48.150;17.142;2024-03-23T05:02:18;19.45;;;14.93;;
12308;SDS011;6217;48.150;17.142;2024-03-23T05:06:25;19.15;;;14.85;;
12308;SDS011;6217;48.150;17.142;2024-03-23T05:10:31;24.95;;;18.60;;
12308;SDS011;6217;48.150;17.142;2024-03-23T05:14:37;27.02;;;18.45;;
12308;SDS011;6217;48.150;17.142;2024-03-23T05:18:43;24.90;;;16.65;;
12308;SDS011;6217;48.150;17.142;2024-03-23T05:22:49;19.02;;;16.08;;
12308;SDS011;6217;48.150;17.142;2024-03-23T05:26:56;21.00;;;14.75;;
12308;SDS011;6217;48.150;17.142;2024-03-23T05:31:04;19.85;;;14.05;;
12308;SDS011;6217;48.150;17.142;2024-03-23T05:35:10;21.83;;;15.57;;
12308;SDS011;6217;48.150;17.142;2024-03-23T05:39:17;17.00;;;14.25;;
12308;SDS011;6217;48.150;17.142;2024-03-23T05:43:23;23.48;;;16.08;;
12308;SDS011;6217;48.150;17.142;2024-03-23T05:47:29;20.42;;;15.55;;
12308;SDS011;6217;48.150;17.142;2024-03-23T05:51:35;18.15;;;13.65;;
12308;SDS011;6217;48.150;17.142;2024-03-23T05:55:41;21.17;;;14.80;;
12308;SDS011;6217;48.150;17.142;2024-03-23T05:59:47;20.77;;;15.45;;
12308;SDS011;6217;48.150;17.142;2024-03-23T06:03:53;22.25;;;15.45;;
12308;SDS011;6217;48.150;17.142;2024-03-23T06:07:59;25.40;;;17.80;;
12308;SDS011;6217;48.150;17.142;2024-03-23T06:12:04;24.30;;;17.42;;
12308;SDS011;6217;48.150;17.142;2024-03-23T06:16:11;22.20;;;15.43;;
12308;SDS011;6217;48.150;17.142;2024-03-23T06:20:17;20.75;;;16.10;;
12308;SDS011;6217;48.150;17.142;2024-03-23T06:24:23;22.50;;;16.25;;
12308;SDS011;6217;48.150;17.142;2024-03-23T06:28:29;19.65;;;15.10;;
12308;SDS011;6217;48.150;17.142;2024-03-23T06:32:35;18.77;;;15.80;;
12308;SDS011;6217;48.150;17.142;2024-03-23T06:36:41;20.00;;;14.48;;
12308;SDS011;6217;48.150;17.142;2024-03-23T06:40:47;20.80;;;15.18;;
12308;SDS011;6217;48.150;17.142;2024-03-23T06:44:56;18.58;;;15.90;;
12308;SDS011;6217;48.150;17.142;2024-03-23T06:49:01;21.27;;;16.48;;
12308;SDS011;6217;48.150;17.142;2024-03-23T06:53:07;19.75;;;16.20;;
12308;SDS011;6217;48.150;17.142;2024-03-23T06:57:14;20.13;;;15.52;;
12308;SDS011;6217;48.150;17.142;2024-03-23T07:01:20;19.10;;;15.05;;
12308;SDS011;6217;48.150;17.142;2024-03-23T07:05:26;18.92;;;15.00;;
12308;SDS011;6217;48.150;17.142;2024-03-23T07:09:32;21.17;;;15.85;;
12308;SDS011;6217;48.150;17.142;2024-03-23T07:13:38;19.63;;;16.73;;
12308;SDS011;6217;48.150;17.142;2024-03-23T07:17:46;19.92;;;15.20;;
12308;SDS011;6217;48.150;17.142;2024-03-23T07:21:53;18.02;;;14.15;;
12308;SDS011;6217;48.150;17.142;2024-03-23T07:25:59;19.85;;;16.40;;
12308;SDS011;6217;48.150;17.142;2024-03-23T07:30:06;20.13;;;15.07;;
12308;SDS011;6217;48.150;17.142;2024-03-23T07:34:14;20.90;;;15.98;;
12308;SDS011;6217;48.150;17.142;2024-03-23T07:38:19;19.00;;;15.52;;
12308;SDS011;6217;48.150;17.142;2024-03-23T07:42:25;24.25;;;14.68;;
12308;SDS011;6217;48.150;17.142;2024-03-23T07:46:31;18.33;;;14.90;;
12308;SDS011;6217;48.150;17.142;2024-03-23T07:50:37;20.10;;;14.95;;
12308;SDS011;6217;48.150;17.142;2024-03-23T07:54:43;18.45;;;14.85;;
12308;SDS011;6217;48.150;17.142;2024-03-23T07:58:49;22.85;;;15.82;;
12308;SDS011;6217;48.150;17.142;2024-03-23T08:02:55;22.73;;;16.25;;
12308;SDS011;6217;48.150;17.142;2024-03-23T08:07:01;19.35;;;15.52;;
12308;SDS011;6217;48.150;17.142;2024-03-23T08:11:07;18.60;;;15.10;;
12308;SDS011;6217;48.150;17.142;2024-03-23T08:15:13;17.77;;;15.85;;
12308;SDS011;6217;48.150;17.142;2024-03-23T08:19:19;16.55;;;14.85;;
12308;SDS011;6217;48.150;17.142;2024-03-23T08:23:25;16.98;;;14.98;;
12308;SDS011;6217;48.150;17.142;2024-03-23T08:27:33;19.05;;;14.43;;
12308;SDS011;6217;48.150;17.142;2024-03-23T08:31:39;18.33;;;14.60;;
12308;SDS011;6217;48.150;17.142;2024-03-23T08:40:01;15.75;;;13.25;;
12308;SDS011;6217;48.150;17.142;2024-03-23T08:44:08;23.02;;;14.23;;
12308;SDS011;6217;48.150;17.142;2024-03-23T08:48:14;15.73;;;13.25;;
12308;SDS011;6217;48.150;17.142;2024-03-23T08:52:19;16.75;;;14.13;;
12308;SDS011;6217;48.150;17.142;2024-03-23T08:56:28;20.58;;;14.60;;
12308;SDS011;6217;48.150;17.142;2024-03-23T09:00:34;16.83;;;12.93;;
12308;SDS011;6217;48.150;17.142;2024-03-23T09:04:40;16.42;;;12.30;;
12308;SDS011;6217;48.150;17.142;2024-03-23T09:08:46;14.85;;;11.45;;
12308;SDS011;6217;48.150;17.142;2024-03-23T09:12:52;15.27;;;11.70;;
12308;SDS011;6217;48.150;17.142;2024-03-23T09:16:57;17.45;;;12.93;;
12308;SDS011;6217;48.150;17.142;2024-03-23T09:21:04;17.27;;;12.38;;
12308;SDS011;6217;48.150;17.142;2024-03-23T09:25:16;17.52;;;13.02;;
12308;SDS011;6217;48.150;17.142;2024-03-23T09:29:22;14.82;;;11.23;;
12308;SDS011;6217;48.150;17.142;2024-03-23T09:33:28;14.85;;;13.23;;
12308;SDS011;6217;48.150;17.142;2024-03-23T09:37:34;15.23;;;12.48;;
12308;SDS011;6217;48.150;17.142;2024-03-23T09:41:40;16.67;;;12.65;;
12308;SDS011;6217;48.150;17.142;2024-03-23T09:45:46;17.58;;;12.75;;
12308;SDS011;6217;48.150;17.142;2024-03-23T09:49:54;13.32;;;11.45;;
12308;SDS011;6217;48.150;17.142;2024-03-23T09:54:00;15.45;;;12.38;;
12308;SDS011;6217;48.150;17.142;2024-03-23T09:58:06;12.18;;;10.98;;
12308;SDS011;6217;48.150;17.142;2024-03-23T10:02:12;14.63;;;11.27;;
12308;SDS011;6217;48.150;17.142;2024-03-23T10:06:22;13.98;;;11.23;;
12308;SDS011;6217;48.150;17.142;2024-03-23T10:10:31;14.18;;;12.07;;
12308;SDS011;6217;48.150;17.142;2024-03-23T10:14:36;13.45;;;10.13;;
12308;SDS011;6217;48.150;17.142;2024-03-23T10:18:42;13.57;;;11.75;;
12308;SDS011;6217;48.150;17.142;2024-03-23T10:22:49;12.13;;;10.60;;
12308;SDS011;6217;48.150;17.142;2024-03-23T10:26:56;14.50;;;11.10;;
12308;SDS011;6217;48.150;17.142;2024-03-23T10:31:08;12.98;;;11.60;;
12308;SDS011;6217;48.150;17.142;2024-03-23T10:35:18;12.25;;;11.10;;
12308;SDS011;6217;48.150;17.142;2024-03-23T10:39:27;10.88;;;9.23;;
12308;SDS011;6217;48.150;17.142;2024-03-23T10:43:36;10.63;;;9.43;;
12308;SDS011;6217;48.150;17.142;2024-03-23T10:47:43;10.82;;;7.38;;
12308;SDS011;6217;48.150;17.142;2024-03-23T10:51:48;9.48;;;8.57;;
12308;SDS011;6217;48.150;17.142;2024-03-23T10:55:55;10.23;;;7.45;;
12308;SDS011;6217;48.150;17.142;2024-03-23T11:00:04;11.32;;;7.32;;
12308;SDS011;6217;48.150;17.142;2024-03-23T11:04:11;9.38;;;7.72;;
12308;SDS011;6217;48.150;17.142;2024-03-23T11:08:44;7.80;;;7.00;;
12308;SDS011;6217;48.150;17.142;2024-03-23T11:12:51;8.77;;;7.93;;
12308;SDS011;6217;48.150;17.142;2024-03-23T11:17:10;9.23;;;7.78;;
12308;SDS011;6217;48.150;17.142;2024-03-23T11:25:58;11.57;;;8.38;;
12308;SDS011;6217;48.150;17.142;2024-03-23T11:30:11;12.15;;;7.05;;
12308;SDS011;6217;48.150;17.142;2024-03-23T11:34:31;9.13;;;8.27;;
12308;SDS011;6217;48.150;17.142;2024-03-23T11:38:41;8.00;;;7.20;;
12308;SDS011;6217;48.150;17.142;2024-03-23T11:42:47;10.73;;;8.38;;
12308;SDS011;6217;48.150;17.142;2024-03-23T11:47:08;11.05;;;8.15;;
12308;SDS011;6217;48.150;17.142;2024-03-23T11:51:16;10.30;;;9.38;;
12308;SDS011;6217;48.150;17.142;2024-03-23T11:55:22;9.25;;;8.45;;
12308;SDS011;6217;48.150;17.142;2024-03-23T11:59:33;10.05;;;7.93;;
12308;SDS011;6217;48.150;17.142;2024-03-23T12:03:46;8.18;;;7.28;;
12308;SDS011;6217;48.150;17.142;2024-03-23T12:07:52;7.47;;;6.35;;
12308;SDS011;6217;48.150;17.142;2024-03-23T12:11:58;15.20;;;9.43;;
12308;SDS011;6217;48.150;17.142;2024-03-23T12:16:24;9.68;;;8.70;;
12308;SDS011;6217;48.150;17.142;2024-03-23T12:20:32;7.15;;;6.45;;
12308;SDS011;6217;48.150;17.142;2024-03-23T12:24:38;8.43;;;6.07;;
12308;SDS011;6217;48.150;17.142;2024-03-23T12:28:50;8.93;;;8.05;;
12308;SDS011;6217;48.150;17.142;2024-03-23T12:32:56;7.53;;;6.78;;
12308;SDS011;6217;48.150;17.142;2024-03-23T12:37:02;8.55;;;6.38;;
12308;SDS011;6217;48.150;17.142;2024-03-23T12:41:07;7.70;;;6.90;;
12308;SDS011;6217;48.150;17.142;2024-03-23T12:45:15;9.43;;;7.20;;
12308;SDS011;6217;48.150;17.142;2024-03-23T12:49:21;6.82;;;6.18;;
12308;SDS011;6217;48.150;17.142;2024-03-23T12:53:27;6.20;;;5.60;;
12308;SDS011;6217;48.150;17.142;2024-03-23T12:57:33;7.45;;;5.63;;
12308;SDS011;6217;48.150;17.142;2024-03-23T13:01:39;9.80;;;4.80;;
12308;SDS011;6217;48.150;17.142;2024-03-23T13:05:51;7.68;;;5.00;;
12308;SDS011;6217;48.150;17.142;2024-03-23T13:09:57;5.78;;;4.20;;
12308;SDS011;6217;48.150;17.142;2024-03-23T13:14:03;4.88;;;3.05;;
12308;SDS011;6217;48.150;17.142;2024-03-23T13:18:09;5.25;;;3.83;;
12308;SDS011;6217;48.150;17.142;2024-03-23T13:22:15;4.15;;;3.80;;
12308;SDS011;6217;48.150;17.142;2024-03-23T13:26:21;17.13;;;4.60;;
12308;SDS011;6217;48.150;17.142;2024-03-23T13:30:27;3.58;;;3.05;;
12308;SDS011;6217;48.150;17.142;2024-03-23T13:34:33;8.40;;;2.85;;
12308;SDS011;6217;48.150;17.142;2024-03-23T13:38:40;4.70;;;2.83;;
12308;SDS011;6217;48.150;17.142;2024-03-23T13:42:46;4.88;;;3.08;;
12308;SDS011;6217;48.150;17.142;2024-03-23T13:46:52;6.13;;;2.60;;
12308;SDS011;6217;48.150;17.142;2024-03-23T13:51:02;3.60;;;2.33;;
12308;SDS011;6217;48.150;17.142;2024-03-23T13:55:09;2.83;;;2.50;;
12308;SDS011;6217;48.150;17.142;2024-03-23T13:59:18;3.13;;;2.10;;
12308;SDS011;6217;48.150;17.142;2024-03-23T14:03:24;3.85;;;3.33;;
12308;SDS011;6217;48.150;17.142;2024-03-23T14:07:30;20.00;;;2.45;;
12308;SDS011;6217;48.150;17.142;2024-03-23T14:11:36;16.60;;;1.88;;
12308;SDS011;6217;48.150;17.142;2024-03-23T14:15:46;9.15;;;1.00;;
12308;SDS011;6217;48.150;17.142;2024-03-23T14:20:00;3.95;;;0.90;;
12308;SDS011;6217;48.150;17.142;2024-03-23T14:24:06;2.53;;;0.52;;
12308;SDS011;6217;48.150;17.142;2024-03-23T14:28:14;3.90;;;0.50;;
12308;SDS011;6217;48.150;17.142;2024-03-23T14:32:20;1.38;;;0.55;;
12308;SDS011;6217;48.150;17.142;2024-03-23T14:36:26;0.98;;;0.50;;
12308;SDS011;6217;48.150;17.142;2024-03-23T14:40:33;0.40;;;0.40;;
12308;SDS011;6217;48.150;17.142;2024-03-23T14:44:39;1.35;;;0.40;;
12308;SDS011;6217;48.150;17.142;2024-03-23T14:48:45;1.70;;;0.50;;
12308;SDS011;6217;48.150;17.142;2024-03-23T14:52:51;1.13;;;0.40;;
12308;SDS011;6217;48.150;17.142;2024-03-23T14:56:57;0.40;;;0.40;;
12308;SDS011;6217;48.150;17.142;2024-03-23T15:01:04;2.05;;;0.50;;
12308;SDS011;6217;48.150;17.142;2024-03-23T15:05:14;0.43;;;0.43;;
12308;SDS011;6217;48.150;17.142;2024-03-23T15:09:20;5.05;;;1.15;;
12308;SDS011;6217;48.150;17.142;2024-03-23T15:13:26;0.50;;;0.50;;
12308;SDS011;6217;48.150;17.142;2024-03-23T15:17:32;1.35;;;1.25;;
12308;SDS011;6217;48.150;17.142;2024-03-23T15:21:40;3.67;;;0.50;;
12308;SDS011;6217;48.150;17.142;2024-03-23T15:25:56;2.83;;;0.70;;
12308;SDS011;6217;48.150;17.142;2024-03-23T15:30:04;0.68;;;0.50;;
12308;SDS011;6217;48.150;17.142;2024-03-23T15:34:12;0.70;;;0.70;;
12308;SDS011;6217;48.150;17.142;2024-03-23T15:38:18;2.40;;;0.70;;
12308;SDS011;6217;48.150;17.142;2024-03-23T15:42:24;1.42;;;1.00;;
12308;SDS011;6217;48.150;17.142;2024-03-23T15:46:30;2.38;;;1.63;;
12308;SDS011;6217;48.150;17.142;2024-03-23T15:50:36;0.80;;;0.80;;
12308;SDS011;6217;48.150;17.142;2024-03-23T15:54:43;1.88;;;0.70;;
12308;SDS011;6217;48.150;17.142;2024-03-23T15:58:49;1.48;;;0.68;;
12308;SDS011;6217;48.150;17.142;2024-03-23T16:02:54;1.02;;;0.60;;
12308;SDS011;6217;48.150;17.142;2024-03-23T16:07:00;0.75;;;0.40;;
12308;SDS011;6217;48.150;17.142;2024-03-23T16:11:07;0.50;;;0.40;;
12308;SDS011;6217;48.150;17.142;2024-03-23T16:15:16;1.38;;;0.60;;
12308;SDS011;6217;48.150;17.142;2024-03-23T16:19:21;0.73;;;0.68;;
12308;SDS011;6217;48.150;17.142;2024-03-23T16:23:27;1.80;;;0.60;;
12308;SDS011;6217;48.150;17.142;2024-03-23T16:27:34;1.23;;;0.50;;
12308;SDS011;6217;48.150;17.142;2024-03-23T16:31:40;0.30;;;0.30;;
12308;SDS011;6217;48.150;17.142;2024-03-23T16:35:54;0.40;;;0.40;;
12308;SDS011;6217;48.150;17.142;2024-03-23T16:40:05;0.30;;;0.30;;
12308;SDS011;6217;48.150;17.142;2024-03-23T16:44:13;1.63;;;0.50;;
12308;SDS011;6217;48.150;17.142;2024-03-23T16:48:19;0.35;;;0.30;;
12308;SDS011;6217;48.150;17.142;2024-03-23T16:52:26;1.92;;;0.40;;
12308;SDS011;6217;48.150;17.142;2024-03-23T16:56:32;1.08;;;0.45;;
12308;SDS011;6217;48.150;17.142;2024-03-23T17:00:40;2.15;;;0.40;;
12308;SDS011;6217;48.150;17.142;2024-03-23T17:04:46;0.40;;;0.40;;
12308;SDS011;6217;48.150;17.142;2024-03-23T17:08:52;1.23;;;0.50;;
12308;SDS011;6217;48.150;17.142;2024-03-23T17:12:58;1.60;;;0.40;;
12308;SDS011;6217;48.150;17.142;2024-03-23T17:17:05;0.75;;;0.60;;
12308;SDS011;6217;48.150;17.142;2024-03-23T17:21:12;0.50;;;0.40;;
12308;SDS011;6217;48.150;17.142;2024-03-23T17:25:19;1.85;;;0.50;;
12308;SDS011;6217;48.150;17.142;2024-03-23T17:29:25;4.28;;;0.55;;
12308;SDS011;6217;48.150;17.142;2024-03-23T17:33:31;1.83;;;1.15;;
12308;SDS011;6217;48.150;17.142;2024-03-23T17:37:37;0.40;;;0.40;;
12308;SDS011;6217;48.150;17.142;2024-03-23T17:41:45;1.42;;;0.80;;
12308;SDS011;6217;48.150;17.142;2024-03-23T17:45:51;0.65;;;0.50;;
12308;SDS011;6217;48.150;17.142;2024-03-23T17:49:57;0.40;;;0.40;;
12308;SDS011;6217;48.150;17.142;2024-03-23T17:54:03;0.60;;;0.60;;
12308;SDS011;6217;48.150;17.142;2024-03-23T17:58:09;0.93;;;0.43;;
12308;SDS011;6217;48.150;17.142;2024-03-23T18:02:15;0.75;;;0.75;;
12308;SDS011;6217;48.150;17.142;2024-03-23T18:06:21;2.80;;;0.50;;
12308;SDS011;6217;48.150;17.142;2024-03-23T18:10:27;0.50;;;0.50;;
12308;SDS011;6217;48.150;17.142;2024-03-23T18:14:34;0.63;;;0.57;;
12308;SDS011;6217;48.150;17.142;2024-03-23T18:18:40;0.47;;;0.40;;
12308;SDS011;6217;48.150;17.142;2024-03-23T18:22:46;3.05;;;0.50;;
12308;SDS011;6217;48.150;17.142;2024-03-23T18:26:52;1.83;;;0.60;;
12308;SDS011;6217;48.150;17.142;2024-03-23T18:31:00;0.80;;;0.60;;
12308;SDS011;6217;48.150;17.142;2024-03-23T18:35:07;0.40;;;0.40;;
12308;SDS011;6217;48.150;17.142;2024-03-23T18:39:13;0.95;;;0.70;;
12308;SDS011;6217;48.150;17.142;2024-03-23T18:43:19;0.52;;;0.52;;
12308;SDS011;6217;48.150;17.142;2024-03-23T18:47:25;0.70;;;0.70;;
12308;SDS011;6217;48.150;17.142;2024-03-23T18:51:31;0.60;;;0.60;;
12308;SDS011;6217;48.150;17.142;2024-03-23T18:55:37;0.80;;;0.60;;
12308;SDS011;6217;48.150;17.142;2024-03-23T18:59:44;0.88;;;0.80;;
12308;SDS011;6217;48.150;17.142;2024-03-23T19:03:50;1.15;;;0.60;;
12308;SDS011;6217;48.150;17.142;2024-03-23T19:07:56;0.90;;;0.68;;
12308;SDS011;6217;48.150;17.142;2024-03-23T19:12:02;0.60;;;0.60;;
12308;SDS011;6217;48.150;17.142;2024-03-23T19:16:08;0.80;;;0.70;;
12308;SDS011;6217;48.150;17.142;2024-03-23T19:20:14;0.88;;;0.82;;
12308;SDS011;6217;48.150;17.142;2024-03-23T19:24:20;0.80;;;0.80;;
12308;SDS011;6217;48.150;17.142;2024-03-23T19:28:26;2.40;;;1.52;;
12308;SDS011;6217;48.150;17.142;2024-03-23T19:32:35;1.42;;;0.70;;
12308;SDS011;6217;48.150;17.142;2024-03-23T19:36:42;0.60;;;0.60;;
12308;SDS011;6217;48.150;17.142;2024-03-23T19:40:51;0.70;;;0.70;;
12308;SDS011;6217;48.150;17.142;2024-03-23T19:45:01;1.23;;;0.70;;
12308;SDS011;6217;48.150;17.142;2024-03-23T19:49:07;0.80;;;0.80;;
12308;SDS011;6217;48.150;17.142;2024-03-23T19:53:13;1.25;;;0.70;;
12308;SDS011;6217;48.150;17.142;2024-03-23T19:57:19;2.35;;;0.85;;
12308;SDS011;6217;48.150;17.142;2024-03-23T20:01:25;0.70;;;0.70;;
12308;SDS011;6217;48.150;17.142;2024-03-23T20:05:31;1.10;;;1.08;;
12308;SDS011;6217;48.150;17.142;2024-03-23T20:09:37;2.20;;;0.77;;
12308;SDS011;6217;48.150;17.142;2024-03-23T20:13:43;0.70;;;0.70;;
12308;SDS011;6217;48.150;17.142;2024-03-23T20:17:49;2.83;;;0.80;;
12308;SDS011;6217;48.150;17.142;2024-03-23T20:21:55;1.58;;;0.95;;
12308;SDS011;6217;48.150;17.142;2024-03-23T20:26:01;1.00;;;0.75;;
12308;SDS011;6217;48.150;17.142;2024-03-23T20:30:07;0.82;;;0.80;;
12308;SDS011;6217;48.150;17.142;2024-03-23T20:34:15;1.77;;;0.82;;
12308;SDS011;6217;48.150;17.142;2024-03-23T20:38:22;4.30;;;0.80;;
12308;SDS011;6217;48.150;17.142;2024-03-23T20:42:28;0.77;;;0.70;;
12308;SDS011;6217;48.150;17.142;2024-03-23T20:46:34;2.03;;;1.10;;
12308;SDS011;6217;48.150;17.142;2024-03-23T20:50:40;1.63;;;1.10;;
12308;SDS011;6217;48.150;17.142;2024-03-23T20:54:46;1.55;;;1.45;;
12308;SDS011;6217;48.150;17.142;2024-03-23T20:58:52;1.25;;;1.08;;
12308;SDS011;6217;48.150;17.142;2024-03-23T21:02:58;2.40;;;1.40;;
12308;SDS011;6217;48.150;17.142;2024-03-23T21:07:04;2.05;;;1.58;;
12308;SDS011;6217;48.150;17.142;2024-03-23T21:11:10;2.03;;;1.63;;
12308;SDS011;6217;48.150;17.142;2024-03-23T21:15:16;1.65;;;1.20;;
12308;SDS011;6217;48.150;17.142;2024-03-23T21:19:22;1.60;;;1.23;;
12308;SDS011;6217;48.150;17.142;2024-03-23T21:23:28;1.90;;;1.40;;
12308;SDS011;6217;48.150;17.142;2024-03-23T21:27:39;2.03;;;1.50;;
12308;SDS011;6217;48.150;17.142;2024-03-23T21:31:45;1.27;;;1.17;;
12308;SDS011;6217;48.150;17.142;2024-03-23T21:35:54;1.63;;;1.52;;
12308;SDS011;6217;48.150;17.142;2024-03-23T21:40:02;1.92;;;1.30;;
12308;SDS011;6217;48.150;17.142;2024-03-23T21:44:08;1.77;;;1.33;;
12308;SDS011;6217;48.150;17.142;2024-03-23T21:48:15;1.20;;;1.00;;
12308;SDS011;6217;48.150;17.142;2024-03-23T21:52:21;2.38;;;1.60;;
12308;SDS011;6217;48.150;17.142;2024-03-23T21:56:27;1.38;;;1.13;;
12308;SDS011;6217;48.150;17.142;2024-03-23T22:00:33;2.70;;;1.30;;
12308;SDS011;6217;48.150;17.142;2024-03-23T22:04:38;1.23;;;0.77;;
12308;SDS011;6217;48.150;17.142;2024-03-23T22:08:44;2.70;;;1.05;;
12308;SDS011;6217;48.150;17.142;2024-03-23T22:12:51;1.50;;;1.13;;
12308;SDS011;6217;48.150;17.142;2024-03-23T22:16:57;1.30;;;1.20;;
12308;SDS011;6217;48.150;17.142;2024-03-23T22:21:05;2.15;;;1.17;;
12308;SDS011;6217;48.150;17.142;2024-03-23T22:25:11;3.28;;;1.27;;
12308;SDS011;6217;48.150;17.142;2024-03-23T22:29:17;1.15;;;1.02;;
12308;SDS011;6217;48.150;17.142;2024-03-23T22:33:23;2.10;;;1.13;;
12308;SDS011;6217;48.150;17.142;2024-03-23T22:37:31;1.17;;;1.08;;
12308;SDS011;6217;48.150;17.142;2024-03-23T22:41:37;1.23;;;1.13;;
12308;SDS011;6217;48.150;17.142;2024-03-23T22:45:43;1.92;;;1.08;;
12308;SDS011;6217;48.150;17.142;2024-03-23T22:49:49;1.23;;;1.10;;
12308;SDS011;6217;48.150;17.142;2024-03-23T22:53:55;2.03;;;1.20;;
12308;SDS011;6217;48.150;17.142;2024-03-23T22:58:01;1.75;;;1.10;;
12308;SDS011;6217;48.150;17.142;2024-03-23T23:02:07;1.48;;;1.25;;
12308;SDS011;6217;48.150;17.142;2024-03-23T23:06:13;1.90;;;1.35;;
12308;SDS011;6217;48.150;17.142;2024-03-23T23:10:19;4.82;;;1.30;;
12308;SDS011;6217;48.150;17.142;2024-03-23T23:14:25;2.88;;;1.40;;
12308;SDS011;6217;48.150;17.142;2024-03-23T23:18:31;1.30;;;1.10;;
12308;SDS011;6217;48.150;17.142;2024-03-23T23:22:37;1.90;;;1.20;;
12308;SDS011;6217;48.150;17.142;2024-03-23T23:26:43;6.85;;;2.40;;
12308;SDS011;6217;48.150;17.142;2024-03-23T23:30:59;1.63;;;1.45;;
12308;SDS011;6217;48.150;17.142;2024-03-23T23:35:09;1.77;;;1.33;;
12308;SDS011;6217;48.150;17.142;2024-03-23T23:39:15;2.15;;;1.60;;
12308;SDS011;6217;48.150;17.142;2024-03-23T23:43:21;2.65;;;1.52;;
12308;SDS011;6217;48.150;17.142;2024-03-23T23:47:27;3.80;;;1.60;;
12308;SDS011;6217;48.150;17.142;2024-03-23T23:51:33;2.30;;;1.38;;
12308;SDS011;6217;48.150;17.142;2024-03-23T23:55:39;2.45;;;1.33;;
12308;SDS011;6217;48.150;17.142;2024-03-23T23:59:45;2.20;;;1.58;;
